Date,TemperatureHighF,TemperatureAvgF,TemperatureLowF,DewpointHighF,DewpointAvgF,DewpointLowF,HumidityHigh,HumidityAvg,HumidityLow,PressureMaxIn,PressureMinIn,WindSpeedMaxMPH,WindSpeedAvgMPH,GustSpeedMaxMPH,PrecipitationSumIn
2013-1-1,37,29,23,34,28,22,100,98,86,30.47,30.33,1,0,5,0.01
2013-1-2,40,29,24,34,28,24,100,95,74,30.32,30.17,1,0,5,0.01
2013-1-3,40,29,22,34,28,22,100,94,72,30.16,30.05,2,0,5,0.13
2013-1-4,39,36,33,39,36,33,100,100,100,30.26,30.09,0,0,5,0.40
2013-1-5,39,37,35,39,37,35,100,100,100,30.15,30.01,3,0,5,0.24
2013-1-6,41,39,36,41,39,36,100,100,100,30.08,29.92,1,0,3,0.39
2013-1-7,43,38,35,43,38,35,100,100,100,30.05,29.74,2,0,7,0.79
2013-1-8,46,38,35,46,38,35,100,100,100,30.08,29.55,3,0,3,1.39
2013-1-9,46,41,37,46,40,35,100,98,92,29.84,29.56,5,1,7,0.17
2013-1-10,39,33,24,36,32,24,100,95,76,30.09,29.85,1,0,2,0.14
2013-1-11,35,25,21,26,22,20,99,89,56,30.28,30.10,2,0,7,0.00
2013-1-12,32,23,18,24,20,16,96,88,63,30.40,30.28,2,0,2,0.00
2013-1-13,30,24,16,25,20,14,96,85,70,30.45,30.40,1,0,2,0.00
2013-1-14,32,30,28,32,29,25,97,94,88,30.52,30.41,0,0,1,0.01
2013-1-15,38,33,30,37,32,29,100,97,90,30.66,30.53,0,0,1,0.02
2013-1-16,39,32,27,34,30,26,100,93,73,30.64,30.48,0,0,1,0.00
2013-1-17,42,29,24,35,28,23,100,94,76,30.49,30.24,1,0,2,0.01
2013-1-18,35,23,23,35,4,-100,100,81,99,30.29,30.22,0,-276,3,0.01
2013-1-19,35,16,28,34,-30,-100,100,53,96,30.33,30.27,0,-464,1,0.01
2013-1-20,46,32,25,38,30,25,100,94,67,30.35,30.23,1,0,2,0.00
2013-1-21,44,30,23,34,28,23,100,93,69,30.23,30.07,2,0,4,0.01
2013-1-22,41,31,24,33,28,23,99,91,67,30.09,29.86,2,0,2,0.01
2013-1-23,41,37,33,41,37,32,100,98,91,30.01,29.75,1,0,2,0.80
2013-1-24,44,39,37,42,38,36,100,97,87,30.13,29.96,1,0,3,0.28
2013-1-25,49,39,34,45,38,33,100,97,83,29.99,29.85,1,0,2,0.16
2013-1-26,39,36,33,39,36,33,100,100,99,29.94,29.81,2,0,2,0.23
2013-1-27,39,37,34,39,37,34,100,100,100,29.95,29.88,3,0,5,0.37
2013-1-28,38,37,34,38,37,34,100,100,100,29.96,29.89,2,0,5,0.35
2013-1-29,41,39,38,41,39,38,100,100,100,30.23,29.97,1,0,1,0.43
2013-1-30,43,42,40,43,39,-100,100,98,100,30.30,30.23,1,-853,1,0.64
2013-1-31,46,42,43,46,38,-100,100,96,100,30.29,30.20,0,-999,1,0.32
2013-2-1,47,36,34,47,19,-100,100,82,94,30.37,30.25,1,-978,2,0.02
2013-2-2,48,38,30,43,36,30,100,96,79,30.36,30.18,2,-666,2,0.01
2013-2-3,42,40,37,42,40,37,100,100,100,30.24,30.11,0,-999,1,0.23
2013-2-4,46,42,40,46,42,40,100,100,100,30.11,29.78,0,-999,1,0.13
2013-2-5,46,43,40,45,42,40,100,97,81,29.80,29.70,0,-999,1,0.14
2013-2-6,47,42,39,44,41,39,100,96,78,29.94,29.73,0,-937,1,0.37
2013-2-7,45,39,32,42,38,30,100,96,85,30.13,29.71,2,-874,2,0.06
2013-2-8,40,35,33,38,35,32,100,98,90,30.24,30.14,0,-937,1,0.00
2013-2-9,44,39,32,40,37,31,100,94,76,30.28,30.20,0,-999,1,0.02
2013-2-10,46,36,27,36,33,27,100,88,64,30.32,30.26,2,-666,6,0.00
2013-2-11,41,39,37,41,39,36,100,99,94,30.27,30.25,0,-999,1,0.14
2013-2-12,46,43,40,45,43,40,100,99,90,30.31,30.15,0,-999,0,0.06
2013-2-13,48,44,38,44,39,36,97,85,69,30.42,30.18,2,-853,2,0.00
2013-2-14,45,41,38,44,41,38,100,99,98,30.52,30.41,0,-999,0,0.16
2013-2-15,53,42,33,45,40,33,100,92,72,30.52,30.10,2,-333,5,0.01
2013-2-16,49,43,39,46,41,38,100,91,66,30.09,30.00,4,1,8,0.18
2013-2-17,44,40,35,40,35,32,97,83,66,30.16,30.07,3,0,5,0.01
2013-2-18,43,37,32,40,35,31,100,94,80,30.05,29.73,1,0,1,0.02
2013-2-19,47,35,28,34,31,28,100,86,57,29.93,29.71,3,0,5,0.01
2013-2-20,38,33,26,38,33,26,100,100,99,29.97,29.93,1,0,2,0.15
2013-2-21,40,38,34,40,38,34,100,98,92,29.96,29.90,3,1,7,0.23
2013-2-22,44,40,37,41,38,34,100,93,77,29.93,29.53,8,1,13,0.85
2013-2-23,47,40,35,38,34,29,95,82,55,30.26,29.75,4,1,7,0.01
2013-2-24,43,40,37,42,39,37,100,97,92,30.27,29.96,3,0,3,0.17
2013-2-27,42,38,36,39,37,34,96,93,88,30.24,30.21,0,0,0,0.10
2013-2-28,40,38,34,40,37,33,100,100,96,30.22,30.15,1,0,2,1.12
2013-3-1,50,47,40,50,47,40,100,100,100,30.21,30.16,3,0,7,2.28
2013-3-2,51,46,37,51,46,36,100,99,96,30.17,29.89,4,1,11,0.55
2013-3-3,46,39,30,39,35,29,100,88,63,30.26,30.06,4,0,5,0.00
2013-3-4,52,38,28,38,29,24,100,76,34,30.25,29.93,5,1,7,0.01
2013-3-5,48,42,35,36,32,27,86,69,57,29.93,29.72,1,0,5,0.00
2013-3-6,46,40,36,41,38,33,97,90,75,29.81,29.56,0,0,3,0.19
2013-3-7,46,41,35,43,40,34,100,95,88,30.05,29.82,0,0,3,0.13
2013-3-8,52,39,30,42,35,29,100,88,62,30.18,30.03,3,0,6,0.01
2013-3-9,54,39,28,40,34,28,100,85,51,30.43,30.18,4,1,7,0.00
2013-3-10,44,40,34,43,40,34,100,97,93,30.42,30.35,1,0,3,0.03
2013-3-11,49,43,38,42,39,36,100,88,61,30.38,30.10,1,0,2,0.14
2013-3-12,49,44,38,49,44,37,100,99,95,30.08,29.92,2,0,3,2.58
2013-3-13,52,50,48,52,50,48,100,100,99,30.09,29.97,2,0,5,0.81
2013-3-14,53,49,46,52,49,46,100,99,93,30.04,29.93,1,0,3,0.58
2013-3-15,54,49,46,52,48,46,100,97,85,30.13,30.04,1,0,2,0.14
2013-3-16,47,44,37,47,43,36,100,96,82,30.03,29.73,4,0,4,0.63
2013-3-17,47,41,37,37,34,28,98,78,48,30.05,29.83,4,2,14,0.00
2013-3-18,48,40,30,39,32,24,99,76,39,30.18,29.96,5,2,10,0.27
2013-3-19,47,38,29,40,33,29,100,86,57,30.19,29.54,4,1,8,0.18
2013-3-20,49,41,36,46,39,33,100,94,75,29.84,29.26,7,2,11,1.09
2013-3-21,47,38,33,36,33,26,98,83,47,30.10,29.85,3,1,5,0.09
2013-3-22,44,37,29,35,32,29,99,86,64,30.32,30.11,6,1,10,0.01
2013-3-23,49,37,28,34,30,24,100,79,41,30.34,30.26,5,1,5,0.01
2013-3-24,54,39,28,34,30,25,98,74,33,30.26,30.09,4,1,5,0.00
2013-3-25,59,44,32,37,32,29,93,69,33,30.09,29.89,3,1,5,0.00
2013-3-26,60,44,31,40,36,30,100,75,39,29.96,29.91,3,1,5,0.00
2013-3-27,63,47,33,43,39,32,100,77,45,29.94,29.87,4,1,5,0.00
2013-3-28,62,49,38,45,42,38,99,79,49,30.07,29.94,4,1,7,0.00
2013-3-29,64,50,38,46,43,38,100,80,47,30.19,30.08,4,1,6,0.00
2013-3-30,67,50,35,47,42,35,100,76,44,30.22,30.04,5,1,7,0.00
2013-3-31,72,53,35,48,41,34,100,70,35,30.03,29.85,3,1,7,0.00
2013-4-1,64,51,37,50,44,36,100,79,51,30.05,29.88,5,1,7,0.00
2013-4-2,55,51,47,47,45,44,95,80,68,30.13,30.05,2,0,6,0.00
2013-4-3,62,52,46,48,44,42,96,77,50,30.12,29.92,2,0,6,0.00
2013-4-4,55,50,46,51,46,42,100,88,66,29.91,29.53,3,0,7,0.56
2013-4-5,54,51,48,53,49,47,100,95,82,29.75,29.58,4,1,10,0.82
2013-4-6,54,48,42,48,43,37,100,86,52,29.80,29.59,4,1,7,0.51
2013-4-7,45,42,40,44,42,40,100,98,94,29.78,29.48,5,0,5,0.72
2013-4-8,54,47,42,47,43,41,100,89,64,30.18,29.79,5,0,7,0.00
2013-4-9,51,47,44,48,45,42,99,91,73,30.26,30.09,1,0,3,0.06
2013-4-10,56,48,44,50,45,43,100,92,61,30.11,29.80,6,2,12,0.76
2013-4-11,54,45,35,43,39,32,98,82,46,30.20,30.11,4,1,6,0.07
2013-4-12,42,38,34,42,38,33,100,97,92,30.11,29.56,2,0,5,0.64
2013-4-13,45,40,36,41,37,34,99,90,80,29.91,29.58,6,1,11,0.09
2013-4-14,54,43,35,41,38,34,100,83,52,29.94,29.84,3,1,5,0.03
2013-4-15,55,44,38,47,41,36,100,90,63,30.13,29.88,5,0,5,0.52
2013-4-16,57,44,32,42,33,24,100,71,29,30.33,30.13,5,1,12,0.02
2013-4-17,58,48,34,40,36,33,98,68,46,30.37,30.32,4,-24,6,0.00
2013-4-18,49,46,43,47,44,39,98,93,74,30.37,30.11,1,0,7,0.50
2013-4-19,53,48,44,51,48,44,100,97,86,30.11,29.99,3,0,5,0.46
2013-4-20,54,48,46,48,46,44,100,92,70,30.15,30.06,5,1,14,0.25
2013-4-21,54,44,33,45,39,29,98,84,40,30.34,30.14,2,0,2,0.43
2013-4-22,60,44,30,37,30,20,100,66,23,30.49,30.35,4,1,7,0.01
2013-4-23,65,48,34,42,36,32,96,67,31,30.37,30.19,3,1,5,0.00
2013-4-24,65,50,34,43,37,32,99,67,29,30.26,29.99,4,1,5,0.00
2013-4-25,65,50,35,47,41,34,99,73,45,30.06,29.98,5,1,11,0.00
2013-4-26,64,52,38,48,43,38,100,72,42,30.16,30.06,3,0,7,0.00
2013-4-27,52,50,47,48,45,42,95,85,68,30.11,30.04,3,1,3,0.28
2013-4-28,54,47,37,46,41,35,98,80,59,30.12,29.83,5,1,12,0.17
2013-4-29,55,47,39,44,35,21,99,67,28,30.04,29.79,8,3,14,0.02
2013-4-30,55,44,32,39,34,30,100,72,42,30.38,30.04,5,1,10,0.00
2013-5-1,61,46,30,41,34,29,100,67,31,30.53,30.38,4,1,7,0.00
2013-5-2,65,51,36,45,39,35,98,68,34,30.50,30.33,3,1,7,0.00
2013-5-3,72,56,38,51,43,36,100,68,33,30.35,30.18,4,1,8,0.00
2013-5-4,82,57,41,47,27,-100,100,50,18,30.20,29.96,4,1,6,0.00
2013-5-5,70,56,46,52,46,42,89,71,44,29.95,29.70,2,0,5,0.00
2013-5-6,83,38,47,52,-7,-100,96,45,31,29.79,29.69,4,1,7,0.00
2013-5-8,68,59,51,56,53,50,96,81,65,30.06,30.02,2,0,5,0.00
2013-5-9,50,43,44,49,36,-100,100,93,98,30.14,30.07,0,0,0,0.00
2013-5-10,78,69,55,59,55,46,96,63,50,30.13,30.05,4,1,6,0.00
2013-5-11,78,63,51,58,55,51,100,76,44,30.09,29.90,3,0,5,0.05
2013-5-12,64,59,56,62,58,56,100,97,88,30.00,29.91,1,0,2,1.54
2013-5-13,62,55,48,58,52,45,100,92,69,30.09,29.81,3,1,7,0.71
2013-5-14,60,51,46,49,46,41,99,83,49,30.16,30.07,1,0,3,0.05
2013-5-15,67,54,45,48,45,42,98,74,43,30.07,29.92,2,0,5,0.00
2013-5-16,68,58,50,54,50,48,97,78,54,29.96,29.80,5,1,5,0.03
2013-5-17,60,53,47,54,51,46,100,92,76,29.97,29.86,3,0,3,0.04
2013-5-18,60,54,50,52,49,44,99,84,58,30.20,29.97,3,1,6,0.04
2013-5-19,60,55,49,52,50,46,97,85,69,30.33,30.20,3,0,5,0.00
2013-5-20,68,56,45,52,48,44,100,77,48,30.29,29.83,4,1,5,0.00
2013-5-21,54,49,46,49,47,46,99,94,80,29.83,29.72,1,0,1,0.63
2013-5-22,59,51,46,49,46,44,100,86,63,29.89,29.78,3,1,6,0.36
2013-5-23,61,50,38,51,46,37,100,85,61,29.95,29.88,4,0,7,0.09
2013-5-24,63,52,39,50,44,39,100,77,52,29.96,29.92,6,1,7,0.00
2013-5-25,59,52,43,52,48,42,99,87,71,29.97,29.93,2,0,5,0.03
2013-5-26,55,51,45,54,50,43,100,96,91,29.94,29.89,1,0,2,0.37
2013-5-27,60,55,50,57,53,50,100,93,75,29.89,29.65,1,0,2,0.18
2013-5-28,58,55,50,54,52,49,100,91,74,29.80,29.68,2,0,5,0.11
2013-5-29,56,52,48,53,50,47,100,94,83,29.86,29.61,3,0,5,0.12
2013-5-30,59,52,49,52,48,45,98,87,65,30.16,29.87,3,0,5,0.35
2013-5-31,65,55,46,52,48,45,100,81,50,30.28,30.17,3,1,5,0.01
2013-6-1,66,55,45,53,49,44,100,81,54,30.19,30.01,3,0,3,0.00
2013-6-2,70,57,45,54,49,44,100,76,47,30.01,29.96,4,1,8,0.00
2013-6-3,72,58,44,56,49,43,100,75,51,30.04,29.99,4,1,7,0.00
2013-6-4,79,62,45,58,51,45,100,72,34,30.07,29.95,3,1,7,0.00
2013-6-5,75,61,50,57,50,-100,100,74,49,30.02,29.95,4,1,10,0.00
2013-6-6,77,64,48,59,53,44,100,72,42,29.98,29.91,4,1,6,0.00
2013-6-7,64,58,53,56,52,44,97,81,61,30.07,29.91,3,0,7,0.16
2013-6-8,65,57,48,51,49,47,99,76,56,30.10,30.03,4,1,4,0.00
2013-6-9,66,56,49,54,48,38,98,77,52,30.03,29.96,2,0,5,0.00
2013-6-10,69,56,40,53,47,40,100,76,49,29.97,29.80,5,1,7,0.00
2013-6-11,62,56,52,49,47,45,87,73,54,30.02,29.83,3,1,3,0.00
2013-6-12,59,54,48,53,50,46,97,86,70,30.08,30.02,1,0,5,0.17
2013-6-13,66,55,44,52,49,43,100,80,57,30.10,30.07,4,1,7,0.00
2013-6-14,60,53,48,55,48,-100,98,88,80,30.17,30.04,1,0,2,0.21
2013-6-15,77,60,42,59,51,42,100,75,46,30.03,29.85,3,0,5,0.00
2013-6-16,75,64,52,59,55,51,100,76,48,30.00,29.91,4,1,10,0.01
2013-6-17,74,64,56,58,54,50,99,75,46,30.00,29.82,3,0,10,0.00
2013-6-18,69,61,54,57,52,46,99,76,45,29.90,29.81,3,0,10,0.07
2013-6-19,60,56,51,59,54,49,97,92,81,29.90,29.82,1,0,10,0.43
2013-6-20,56,53,52,55,53,52,100,99,96,30.02,29.82,3,1,10,1.91
2013-6-21,63,56,52,56,54,52,100,90,73,30.10,30.02,1,0,10,0.01
2013-6-22,72,62,54,59,55,53,100,80,52,30.06,29.82,2,0,10,0.00
2013-6-23,72,62,50,61,56,50,100,82,61,29.82,29.54,2,0,10,0.02
2013-6-24,63,60,58,62,59,56,100,95,84,29.63,29.49,4,0,10,0.44
2013-6-25,69,60,55,60,57,55,100,88,63,29.76,29.61,4,-23,10,0.76
2013-6-26,67,60,54,64,58,53,100,94,73,30.01,29.76,3,0,10,0.21
2013-6-27,67,62,57,64,60,56,100,94,85,30.15,29.99,1,0,2,0.05
2013-6-28,76,66,56,66,61,56,100,84,64,30.16,29.99,2,0,3,0.00
2013-6-29,83,69,59,73,56,-100,100,78,49,30.03,29.91,3,0,6,0.01
2013-6-30,91,75,58,70,64,58,100,74,43,29.95,29.77,0,0,0,0.00
2013-7-1,88,75,61,69,64,61,100,74,46,29.91,29.82,0,0,0,0.00
2013-7-2,81,70,61,64,60,54,97,73,47,30.01,29.93,0,0,0,0.00
2013-7-3,77,65,52,60,54,45,99,71,35,30.07,29.95,0,0,0,0.00
2013-7-4,71,60,49,56,52,48,94,76,55,30.03,29.94,0,0,0,0.00
2013-7-5,74,62,52,60,54,50,97,76,52,29.96,29.87,0,0,0,0.00
2013-7-6,79,65,49,60,55,49,100,74,41,29.92,29.77,0,0,0,0.00
2013-7-7,77,65,54,63,57,54,100,77,54,29.86,29.80,0,0,0,0.00
2013-7-8,76,65,54,62,58,54,100,78,55,30.02,29.86,0,0,0,0.00
2013-7-9,84,68,52,64,58,52,100,73,41,30.04,29.90,0,0,0,0.00
2013-7-10,74,64,54,58,53,42,96,71,44,29.96,29.86,4,1,6,0.00
2013-7-11,67,58,49,52,48,46,88,72,50,29.99,29.88,3,1,5,0.00
2013-7-12,72,58,44,52,48,43,99,72,45,30.02,29.93,4,0,14,0.00
2013-7-13,75,60,44,55,50,44,100,71,41,30.13,30.02,2,0,5,0.00
2013-7-14,78,62,46,57,50,44,100,70,30,30.06,29.93,4,0,7,0.00
2013-7-15,83,66,48,56,48,42,100,61,25,30.00,29.84,3,0,10,0.00
2013-7-16,91,78,68,59,47,38,72,35,18,29.85,29.74,3,1,5,0.00
2013-7-17,76,68,59,66,60,56,98,78,58,30.12,29.76,4,0,7,0.13
2013-7-18,77,67,59,61,58,55,95,74,54,30.15,30.04,2,1,6,0.00
2013-7-19,81,67,53,64,59,53,100,78,53,30.08,29.95,3,0,10,0.00
2013-7-20,78,64,55,62,58,55,100,80,53,29.98,29.88,3,1,7,0.00
2013-7-21,77,64,51,62,56,51,100,77,54,29.89,29.82,4,1,6,0.00
2013-7-22,77,65,54,61,57,53,100,78,52,29.97,29.86,3,1,6,0.00
2013-7-23,83,68,52,61,57,51,100,71,42,30.00,29.89,3,1,6,0.00
2013-7-24,84,68,52,61,57,51,100,72,40,29.98,29.91,3,1,7,0.00
2013-7-25,83,67,52,61,57,52,100,73,38,30.02,29.95,3,1,7,0.00
2013-7-26,80,66,51,61,55,50,100,73,36,30.07,30.00,3,1,7,0.00
2013-7-27,76,62,49,58,53,48,100,75,40,30.08,29.93,4,1,9,0.00
2013-7-28,75,63,48,60,54,48,100,75,50,29.93,29.85,5,1,5,0.00
2013-7-29,76,64,51,60,56,51,100,77,52,29.93,29.85,3,1,6,0.00
2013-7-30,77,65,51,61,57,51,100,78,53,30.04,29.93,5,1,5,0.00
2013-7-31,77,65,52,62,58,52,100,80,57,30.04,29.92,3,0,7,0.00
2013-8-1,68,63,58,61,58,56,98,85,72,29.97,29.92,2,1,5,0.02
2013-8-2,63,60,57,59,57,56,99,92,84,30.07,29.97,1,0,5,0.19
2013-8-3,74,63,56,60,58,55,99,84,62,30.07,29.99,2,0,5,0.00
2013-8-4,80,56,-10,63,12,-100,100,62,54,30.01,29.87,2,0,5,0.00
2013-8-5,83,68,54,64,59,54,100,77,45,29.94,29.85,3,0,10,0.00
2013-8-6,84,67,52,62,57,52,100,74,35,29.92,29.85,3,0,7,0.00
2013-8-7,83,67,52,60,56,52,100,72,41,29.92,29.86,3,1,5,0.00
2013-8-8,83,67,53,62,58,53,100,75,47,29.95,29.85,4,1,6,0.00
2013-8-9,85,70,54,63,60,54,100,74,45,29.88,29.73,3,1,7,0.00
2013-8-10,80,68,59,63,60,57,95,76,53,29.92,29.78,3,1,7,0.00
2013-8-11,75,65,59,62,59,56,99,83,58,30.00,29.91,2,0,5,0.17
2013-8-12,77,62,58,61,48,-100,96,71,54,29.99,29.93,3,0,5,0.00
2013-8-13,80,46,58,60,2,-100,94,43,48,30.03,29.87,4,1,8,0.00
2013-8-14,77,65,53,66,60,53,100,86,58,29.89,29.83,1,0,5,0.06
2013-8-15,71,66,61,67,63,61,100,93,79,29.92,29.85,1,0,5,0.03
2013-8-16,78,69,61,63,61,58,99,78,51,29.94,29.88,1,0,5,0.00
2013-8-17,73,56,58,64,30,-100,100,65,62,29.99,29.90,2,0,5,0.02
2013-8-18,69,63,57,61,59,56,99,86,70,30.05,29.98,1,0,5,0.01
2013-8-19,69,61,54,58,56,53,100,83,65,30.06,29.99,2,0,5,0.00
2013-8-20,75,59,49,58,49,-100,100,76,41,30.11,30.02,3,1,5,0.00
2013-8-21,82,62,47,59,50,-100,100,72,42,30.05,29.88,3,0,7,0.00
2013-8-22,84,68,50,62,56,50,100,72,39,29.89,29.71,2,0,6,0.00
2013-8-23,73,64,56,60,56,54,95,76,55,29.80,29.73,3,1,6,0.01
2013-8-24,72,62,56,60,57,52,100,85,54,29.84,29.79,2,0,5,0.14
2013-8-25,77,63,49,57,54,49,100,75,40,29.88,29.78,4,1,7,0.00
2013-8-26,73,64,57,62,57,54,96,80,55,29.85,29.77,2,0,5,0.02
2013-8-27,75,65,58,62,59,57,99,82,54,29.87,29.72,1,0,5,0.06
2013-8-28,76,67,61,66,62,60,100,87,59,29.82,29.75,1,0,5,0.09
2013-8-29,71,65,63,68,65,63,100,98,80,29.86,29.79,1,0,5,0.33
2013-8-30,72,63,55,63,59,54,100,89,59,30.10,29.86,2,0,7,0.12
2013-8-31,81,64,50,64,57,50,100,82,52,30.04,29.77,2,0,5,0.00
2013-9-1,81,65,51,62,57,51,100,79,47,29.82,29.71,2,0,5,0.00
2013-9-2,77,66,56,63,60,56,100,82,57,29.86,29.78,2,0,5,0.01
2013-9-3,68,61,56,64,60,56,100,98,86,29.96,29.87,1,0,5,0.35
2013-9-4,73,62,54,63,59,54,100,90,62,29.99,29.93,2,0,5,0.07
2013-9-5,66,60,54,65,57,-100,100,97,95,29.98,29.84,1,0,5,0.03
2013-9-6,66,62,60,64,62,60,100,97,86,30.03,29.83,2,0,5,0.17
2013-9-7,76,65,58,64,62,58,100,89,64,30.03,29.95,2,0,5,0.10
2013-9-8,73,64,54,64,60,54,100,88,69,30.03,29.95,1,0,5,0.00
2013-9-9,77,66,55,63,60,54,100,83,59,29.99,29.92,3,0,7,0.00
2013-9-10,82,66,52,66,60,52,100,85,53,29.94,29.84,2,0,5,0.00
2013-9-11,91,70,54,67,60,54,100,75,33,29.90,29.81,3,0,5,0.01
2013-9-12,86,69,56,64,60,56,100,78,44,29.91,29.80,3,0,5,0.00
2013-9-13,75,62,53,63,59,53,100,89,65,29.89,29.78,4,1,7,0.00
2013-9-14,75,64,59,65,61,59,100,90,68,29.82,29.67,2,0,5,0.00
2013-9-15,68,60,56,62,59,56,100,96,80,29.74,29.63,2,0,5,0.20
2013-9-16,63,60,58,61,59,56,100,97,86,29.84,29.70,3,0,5,0.47
2013-9-17,62,57,52,57,54,51,99,91,78,29.84,29.77,2,0,5,0.02
2013-9-18,66,56,48,56,52,48,100,88,54,30.02,29.84,1,0,5,0.00
2013-9-19,75,58,47,57,52,47,100,82,41,30.00,29.70,4,1,6,0.00
2013-9-20,74,59,46,55,50,45,100,76,37,29.69,29.50,2,0,5,0.01
2013-9-21,66,59,56,57,54,49,100,84,55,29.63,29.56,2,0,5,0.08
2013-9-22,59,56,54,56,54,52,100,95,80,29.60,29.46,4,1,5,0.47
2013-9-23,58,54,47,54,50,46,98,89,70,29.88,29.61,4,1,5,0.13
2013-9-24,59,52,46,51,48,46,100,89,65,29.88,29.78,0,0,5,0.03
2013-9-25,65,52,40,51,46,40,100,84,50,29.95,29.80,3,0,7,0.01
2013-9-26,64,47,38,52,32,-100,100,74,51,30.05,29.96,3,1,7,0.00
2013-9-27,51,49,43,51,49,43,100,100,99,30.03,29.76,0,0,0,0.37
2013-9-28,53,50,48,53,50,48,100,100,100,29.76,29.19,2,0,5,1.57
2013-9-29,53,51,48,52,50,48,100,99,93,29.43,29.07,3,1,7,0.80
2013-9-30,53,49,46,49,47,44,100,91,79,29.80,29.24,5,1,12,0.17
2013-10-1,52,47,45,49,46,45,100,96,85,30.03,29.81,1,0,12,0.54
2013-10-2,50,46,40,49,46,38,100,98,95,30.12,30.01,0,0,12,0.48
2013-10-3,57,46,36,49,43,36,100,92,73,30.41,30.13,1,0,12,0.00
2013-10-4,59,48,36,52,44,36,100,90,69,30.43,30.29,3,0,12,0.00
2013-10-5,65,55,49,53,50,48,98,85,57,30.30,30.08,1,0,12,0.00
2013-10-6,73,58,43,55,47,39,100,72,37,30.07,29.75,2,0,12,0.00
2013-10-7,57,53,51,53,50,47,99,90,75,29.86,29.75,5,1,12,0.43
2013-10-8,57,48,39,50,46,39,100,92,66,30.04,29.84,2,0,12,0.15
2013-10-9,57,46,36,47,42,36,100,88,58,30.08,29.89,2,0,12,0.01
2013-10-10,57,48,40,49,45,40,100,92,68,30.01,29.86,3,0,12,0.00
2013-10-11,54,44,34,48,42,34,100,91,69,30.08,30.01,1,0,12,0.00
2013-10-12,60,47,38,47,43,38,100,87,60,30.15,30.01,3,0,12,0.00
2013-10-13,60,44,32,44,38,32,100,85,49,30.31,30.16,2,0,12,0.01
2013-10-14,60,44,33,47,40,33,100,87,59,30.37,30.31,2,0,12,0.00
2013-10-15,60,48,36,50,44,36,100,89,61,30.33,30.12,3,0,12,0.00
2013-10-16,65,48,37,51,44,37,100,87,50,30.14,30.08,1,0,12,0.00
2013-10-17,61,46,35,50,43,35,100,90,65,30.22,30.14,2,0,12,0.00
2013-10-18,60,45,35,50,42,35,100,91,67,30.20,30.10,2,0,5,0.00
2013-10-19,50,43,35,48,42,35,100,98,89,30.14,30.09,3,0,5,0.01
2013-10-20,50,46,44,48,46,44,100,99,93,30.15,30.09,0,0,0,0.00
2013-10-21,55,45,39,51,45,39,100,98,83,30.12,30.05,2,0,3,0.00
2013-10-22,63,46,36,52,44,36,100,93,69,30.08,29.98,2,0,3,0.01
2013-10-23,66,49,38,52,45,38,100,89,57,29.99,29.92,2,0,4,0.00
2013-10-24,64,48,37,51,44,37,100,89,60,30.03,29.95,2,0,5,0.01
2013-10-25,51,47,42,50,46,42,100,96,88,30.27,30.04,0,0,0,0.01
2013-10-26,53,49,47,47,46,45,97,90,77,30.29,30.11,1,0,3,0.00
2013-10-27,57,51,44,50,44,31,100,80,40,30.10,29.89,4,1,9,0.28
2013-10-28,59,51,36,31,26,22,79,40,25,29.99,29.89,4,2,14,0.00
2013-10-29,56,41,30,37,31,28,96,72,39,29.97,29.89,2,0,4,0.00
2013-10-30,54,44,33,46,39,32,99,86,53,30.05,29.96,1,0,2,0.06
2013-10-31,49,48,46,49,48,46,100,100,99,30.18,30.01,0,0,0,0.20
2013-11-1,52,50,48,52,50,48,100,100,100,30.19,29.79,1,0,5,0.13
2013-11-2,48,43,38,48,43,38,100,100,100,29.78,29.35,4,1,8,1.65
2013-11-3,47,38,30,42,37,30,100,95,74,30.05,29.79,3,0,6,0.02
2013-11-4,46,36,27,38,34,27,100,92,67,30.14,30.03,2,0,3,0.01
2013-11-5,41,40,38,41,40,37,100,99,94,30.19,29.98,0,0,2,0.14
2013-11-6,48,43,40,45,42,40,100,96,84,30.27,30.17,1,0,2,0.00
2013-11-10,46,44,44,44,43,42,96,94,90,30.11,30.10,0,0,1,0.01
2013-11-11,52,47,44,42,38,36,94,71,60,30.13,29.95,4,2,7,0.00
2013-11-12,54,48,44,53,47,40,100,94,80,30.24,29.94,2,-42,2,0.20
2013-11-13,53,50,47,50,48,45,100,93,83,30.33,30.24,3,0,3,0.03
2013-11-14,49,45,40,47,44,39,100,96,86,30.23,29.97,2,0,6,0.02
2013-11-15,43,41,37,42,40,37,100,98,96,29.97,29.17,6,1,7,0.97
2013-11-16,43,39,35,42,38,35,100,97,88,29.64,29.23,2,0,2,0.06
2013-11-17,49,42,35,45,40,34,100,94,78,29.80,29.65,4,1,9,0.14
2013-11-18,45,43,42,45,43,42,100,100,96,29.80,29.46,1,0,2,1.17
2013-11-19,42,37,26,42,33,21,100,88,47,30.02,29.47,3,0,14,0.16
2013-11-20,36,28,23,26,23,19,98,83,55,30.48,30.03,3,-83,5,0.00
2013-11-21,37,27,20,26,23,19,96,86,57,30.64,30.49,3,0,3,0.01
2013-11-22,42,30,23,30,26,22,97,88,61,30.63,30.43,1,0,5,0.01
2013-11-23,46,33,25,36,30,25,99,91,66,30.42,30.16,1,0,2,0.00
2013-11-24,49,36,28,39,34,28,100,92,67,30.20,30.13,1,0,5,0.01
2013-11-25,52,38,31,40,36,31,100,91,62,30.25,30.20,2,0,2,0.00
2013-11-26,48,37,28,40,34,28,100,90,59,30.20,30.07,1,0,2,0.00
2013-11-27,52,42,35,41,37,34,97,83,58,30.05,29.91,2,0,2,0.00
2013-11-28,51,40,31,44,38,31,100,92,65,30.10,29.97,2,0,2,0.03
2013-11-29,45,44,44,45,44,44,100,100,100,30.24,30.11,0,0,1,0.45
2013-11-30,45,44,42,45,44,42,100,100,100,30.25,29.99,1,0,1,0.69
2013-12-1,49,45,39,49,44,39,100,99,93,29.98,29.62,3,1,7,0.72
2013-12-2,39,35,30,38,31,18,97,87,57,30.11,29.66,4,1,5,0.00
2013-12-3,35,29,24,19,14,12,71,55,44,30.31,30.12,5,1,8,0.01
2013-12-4,33,26,22,17,12,8,81,57,37,30.33,30.29,5,1,9,0.00
2013-12-5,30,24,20,16,12,5,74,59,43,30.29,30.17,3,-62,5,0.00
2013-12-6,26,22,19,3,-3,-6,41,33,27,30.32,30.19,5,2,18,0.00
2013-12-7,26,18,11,6,-1,-9,77,44,28,30.37,30.30,4,1,18,0.00
2013-12-8,28,20,11,14,10,5,87,67,49,30.51,30.36,2,0,18,0.00
2013-12-9,29,25,15,26,22,12,94,88,84,30.51,30.42,0,0,18,0.02
2013-12-10,33,30,28,31,29,26,96,95,93,30.44,30.38,0,0,18,0.03
2013-12-11,36,32,29,35,30,28,98,95,90,30.38,30.11,0,0,18,0.00
2013-12-12,36,33,29,36,32,28,100,99,97,30.11,29.96,2,0,18,0.17
2013-12-13,41,37,35,41,37,35,100,100,100,30.35,30.07,0,0,18,0.14
2013-12-14,44,42,39,44,42,39,100,100,100,30.36,30.24,1,0,18,0.03
2013-12-15,47,45,40,47,45,39,100,100,98,30.35,30.21,2,0,18,0.12
2013-12-16,44,38,31,44,38,31,100,100,98,30.43,30.22,0,0,18,0.00
2013-12-17,40,36,30,40,36,30,100,100,100,30.21,30.00,1,0,18,0.06
2013-12-18,41,36,26,41,34,24,100,91,65,30.16,29.95,3,1,18,0.05
2013-12-19,32,27,22,26,23,20,96,84,62,30.31,30.15,0,0,18,0.01
2013-12-20,32,31,29,32,29,26,97,94,87,30.14,29.66,0,0,18,0.31
2013-12-21,37,33,32,35,32,31,99,96,90,30.11,29.81,0,0,18,0.04
2013-12-22,38,35,33,38,35,32,100,99,96,30.23,30.11,0,0,2,0.50
2013-12-23,48,42,36,48,39,34,100,92,72,30.41,30.00,4,1,7,0.65
2013-12-24,43,40,32,40,38,31,98,94,87,30.54,30.42,1,0,2,0.00
2013-12-25,38,34,28,38,34,27,100,99,95,30.49,30.34,0,-21,0,0.02
2013-12-26,45,40,35,45,39,34,100,99,96,30.34,30.15,1,0,2,0.10
2013-12-27,44,40,34,44,39,33,100,100,98,30.26,29.99,3,0,5,0.36
2013-12-28,46,42,40,44,41,39,100,96,88,30.46,30.27,1,0,3,0.00
2013-12-29,42,40,38,42,40,38,100,100,98,30.41,30.26,1,0,2,0.02
2013-12-30,45,41,38,44,41,38,100,99,94,30.26,30.03,1,0,1,0.02
2013-12-31,44,42,40,44,42,40,100,100,100,30.32,30.10,0,0,0,0.16
2014-1-1,45,41,36,44,40,36,100,98,91,30.36,30.20,1,0,1,0.00
2014-1-2,45,42,39,45,40,-100,100,98,99,30.19,29.75,4,1,6,1.09